sensor_id;sensor_type;location;lat;lon;timestamp;pressure;altitude;pressure_sealevel;temperature;humidity
57847;BME280;43675;50.030;21.952;2023-08-24T00:01:30;98923.62;;;17.61;80.75
57847;BME280;43675;50.030;21.952;2023-08-24T00:03:57;98918.98;;;17.63;80.89
57847;BME280;43675;50.030;21.952;2023-08-24T00:06:23;98917.62;;;17.64;80.93
57847;BME280;43675;50.030;21.952;2023-08-24T00:08:50;98919.79;;;17.59;81.01
57847;BME280;43675;50.030;21.952;2023-08-24T00:11:17;98923.05;;;17.56;81.09
57847;BME280;43675;50.030;21.952;2023-08-24T00:13:44;98923.59;;;17.53;81.13
57847;BME280;43675;50.030;21.952;2023-08-24T00:16:10;98919.36;;;17.49;81.16
57847;BME280;43675;50.030;21.952;2023-08-24T00:18:37;98919.96;;;17.44;81.29
57847;BME280;43675;50.030;21.952;2023-08-24T00:21:04;98923.28;;;17.37;81.31
57847;BME280;43675;50.030;21.952;2023-08-24T00:23:30;98926.95;;;17.30;81.49
57847;BME280;43675;50.030;21.952;2023-08-24T00:25:57;98933.27;;;17.24;81.78
57847;BME280;43675;50.030;21.952;2023-08-24T00:28:23;98938.09;;;17.20;81.98
57847;BME280;43675;50.030;21.952;2023-08-24T00:30:50;98934.30;;;17.17;82.08
57847;BME280;43675;50.030;21.952;2023-08-24T00:33:17;98936.77;;;17.15;82.19
57847;BME280;43675;50.030;21.952;2023-08-24T00:35:44;98937.73;;;17.13;82.28
57847;BME280;43675;50.030;21.952;2023-08-24T00:38:10;98938.14;;;17.12;82.23
57847;BME280;43675;50.030;21.952;2023-08-24T00:40:37;98936.00;;;17.11;82.31
57847;BME280;43675;50.030;21.952;2023-08-24T00:43:03;98934.90;;;17.08;82.46
57847;BME280;43675;50.030;21.952;2023-08-24T00:45:30;98936.21;;;17.09;82.49
57847;BME280;43675;50.030;21.952;2023-08-24T00:47:58;98933.30;;;17.11;82.60
57847;BME280;43675;50.030;21.952;2023-08-24T00:50:25;98936.10;;;17.12;82.54
57847;BME280;43675;50.030;21.952;2023-08-24T00:52:52;98931.64;;;17.16;82.29
57847;BME280;43675;50.030;21.952;2023-08-24T00:55:20;98934.16;;;17.14;82.29
57847;BME280;43675;50.030;21.952;2023-08-24T00:57:48;98931.73;;;17.16;82.26
57847;BME280;43675;50.030;21.952;2023-08-24T01:00:16;98929.81;;;17.25;82.04
57847;BME280;43675;50.030;21.952;2023-08-24T01:02:43;98930.00;;;17.36;81.71
57847;BME280;43675;50.030;21.952;2023-08-24T01:05:10;98927.68;;;17.32;81.52
57847;BME280;43675;50.030;21.952;2023-08-24T01:07:38;98930.27;;;17.20;81.79
57847;BME280;43675;50.030;21.952;2023-08-24T01:10:07;98926.63;;;17.14;81.91
57847;BME280;43675;50.030;21.952;2023-08-24T01:13:09;98926.61;;;17.05;82.12
57847;BME280;43675;50.030;21.952;2023-08-24T01:16:13;98926.30;;;17.10;82.04
57847;BME280;43675;50.030;21.952;2023-08-24T01:18:43;98922.82;;;17.18;81.66
57847;BME280;43675;50.030;21.952;2023-08-24T01:21:12;98925.17;;;17.12;81.65
57847;BME280;43675;50.030;21.952;2023-08-24T01:24:09;98925.53;;;16.95;82.10
57847;BME280;43675;50.030;21.952;2023-08-24T01:26:37;98924.48;;;16.77;82.38
57847;BME280;43675;50.030;21.952;2023-08-24T01:29:04;98921.77;;;16.68;82.89
57847;BME280;43675;50.030;21.952;2023-08-24T01:31:31;98923.23;;;16.62;83.33
57847;BME280;43675;50.030;21.952;2023-08-24T01:33:58;98921.35;;;16.55;83.52
57847;BME280;43675;50.030;21.952;2023-08-24T01:36:25;98924.57;;;16.51;83.85
57847;BME280;43675;50.030;21.952;2023-08-24T01:38:59;98921.77;;;16.49;84.14
57847;BME280;43675;50.030;21.952;2023-08-24T01:41:31;98922.17;;;16.50;84.32
57847;BME280;43675;50.030;21.952;2023-08-24T01:44:03;98923.83;;;16.52;84.42
57847;BME280;43675;50.030;21.952;2023-08-24T01:46:31;98925.66;;;16.54;84.60
57847;BME280;43675;50.030;21.952;2023-08-24T01:48:59;98925.26;;;16.58;84.85
57847;BME280;43675;50.030;21.952;2023-08-24T01:51:26;98928.48;;;16.63;84.88
57847;BME280;43675;50.030;21.952;2023-08-24T01:53:54;98924.92;;;16.64;85.00
57847;BME280;43675;50.030;21.952;2023-08-24T01:56:21;98921.64;;;16.64;84.89
57847;BME280;43675;50.030;21.952;2023-08-24T01:58:47;98918.23;;;16.64;84.94
57847;BME280;43675;50.030;21.952;2023-08-24T02:01:14;98922.65;;;16.61;84.93
57847;BME280;43675;50.030;21.952;2023-08-24T02:03:40;98917.79;;;16.56;84.90
57847;BME280;43675;50.030;21.952;2023-08-24T02:06:08;98917.98;;;16.52;85.08
57847;BME280;43675;50.030;21.952;2023-08-24T02:08:34;98916.00;;;16.47;85.05
57847;BME280;43675;50.030;21.952;2023-08-24T02:11:01;98916.27;;;16.44;85.12
57847;BME280;43675;50.030;21.952;2023-08-24T02:13:27;98917.02;;;16.39;85.19
57847;BME280;43675;50.030;21.952;2023-08-24T02:16:21;98915.64;;;16.35;85.31
57847;BME280;43675;50.030;21.952;2023-08-24T02:18:47;98915.57;;;16.31;85.41
57847;BME280;43675;50.030;21.952;2023-08-24T02:21:14;98913.75;;;16.29;85.55
57847;BME280;43675;50.030;21.952;2023-08-24T02:23:40;98916.58;;;16.24;85.59
57847;BME280;43675;50.030;21.952;2023-08-24T02:26:07;98914.21;;;16.18;85.87
57847;BME280;43675;50.030;21.952;2023-08-24T02:28:36;98913.99;;;16.15;86.07
57847;BME280;43675;50.030;21.952;2023-08-24T02:31:04;98913.50;;;16.11;86.30
57847;BME280;43675;50.030;21.952;2023-08-24T02:33:31;98911.10;;;16.10;86.39
57847;BME280;43675;50.030;21.952;2023-08-24T02:35:58;98902.86;;;16.06;86.34
57847;BME280;43675;50.030;21.952;2023-08-24T02:38:24;98905.91;;;16.01;86.47
57847;BME280;43675;50.030;21.952;2023-08-24T02:41:05;98906.63;;;15.97;86.50
57847;BME280;43675;50.030;21.952;2023-08-24T02:43:32;98909.25;;;15.89;86.53
57847;BME280;43675;50.030;21.952;2023-08-24T02:46:03;98905.27;;;15.84;86.70
57847;BME280;43675;50.030;21.952;2023-08-24T02:48:31;98903.73;;;15.78;86.77
57847;BME280;43675;50.030;21.952;2023-08-24T02:50:58;98905.73;;;15.74;86.86
57847;BME280;43675;50.030;21.952;2023-08-24T02:53:25;98901.39;;;15.82;86.77
57847;BME280;43675;50.030;21.952;2023-08-24T02:55:55;98908.65;;;15.92;86.39
57847;BME280;43675;50.030;21.952;2023-08-24T02:58:22;98912.35;;;15.98;86.14
57847;BME280;43675;50.030;21.952;2023-08-24T03:00:49;98914.44;;;16.03;86.07
57847;BME280;43675;50.030;21.952;2023-08-24T03:03:16;98916.77;;;16.06;86.14
57847;BME280;43675;50.030;21.952;2023-08-24T03:06:00;98915.44;;;15.98;86.29
57847;BME280;43675;50.030;21.952;2023-08-24T03:08:29;98918.84;;;15.86;86.80
57847;BME280;43675;50.030;21.952;2023-08-24T03:10:56;98919.02;;;15.81;87.28
57847;BME280;43675;50.030;21.952;2023-08-24T03:13:23;98916.98;;;15.91;87.22
57847;BME280;43675;50.030;21.952;2023-08-24T03:15:50;98920.08;;;15.89;87.22
57847;BME280;43675;50.030;21.952;2023-08-24T03:18:16;98922.98;;;15.85;87.53
57847;BME280;43675;50.030;21.952;2023-08-24T03:20:44;98922.85;;;15.81;87.62
57847;BME280;43675;50.030;21.952;2023-08-24T03:23:11;98920.02;;;15.77;87.75
57847;BME280;43675;50.030;21.952;2023-08-24T03:25:39;98923.52;;;15.76;87.97
57847;BME280;43675;50.030;21.952;2023-08-24T03:28:07;98924.73;;;15.78;87.98
57847;BME280;43675;50.030;21.952;2023-08-24T03:30:37;98926.20;;;15.75;87.94
57847;BME280;43675;50.030;21.952;2023-08-24T03:33:05;98925.45;;;15.70;87.98
57847;BME280;43675;50.030;21.952;2023-08-24T03:35:32;98927.77;;;15.63;88.02
57847;BME280;43675;50.030;21.952;2023-08-24T03:37:59;98929.32;;;15.57;88.12
57847;BME280;43675;50.030;21.952;2023-08-24T03:40:26;98929.41;;;15.51;88.22
57847;BME280;43675;50.030;21.952;2023-08-24T03:42:53;98931.05;;;15.45;88.18
57847;BME280;43675;50.030;21.952;2023-08-24T03:45:20;98926.42;;;15.39;88.10
57847;BME280;43675;50.030;21.952;2023-08-24T03:47:47;98927.50;;;15.33;88.22
57847;BME280;43675;50.030;21.952;2023-08-24T03:50:13;98931.39;;;15.28;88.20
57847;BME280;43675;50.030;21.952;2023-08-24T03:52:40;98932.14;;;15.22;88.33
57847;BME280;43675;50.030;21.952;2023-08-24T03:55:07;98927.86;;;15.17;88.32
57847;BME280;43675;50.030;21.952;2023-08-24T03:57:34;98934.93;;;15.13;88.47
57847;BME280;43675;50.030;21.952;2023-08-24T04:00:01;98930.41;;;15.10;88.43
57847;BME280;43675;50.030;21.952;2023-08-24T04:02:28;98930.21;;;15.06;88.60
57847;BME280;43675;50.030;21.952;2023-08-24T04:04:54;98931.48;;;15.02;88.61
57847;BME280;43675;50.030;21.952;2023-08-24T04:07:21;98930.70;;;14.99;88.75
57847;BME280;43675;50.030;21.952;2023-08-24T04:09:47;98929.89;;;14.96;88.82
57847;BME280;43675;50.030;21.952;2023-08-24T04:12:14;98929.34;;;14.94;88.95
57847;BME280;43675;50.030;21.952;2023-08-24T04:14:40;98930.81;;;14.94;89.10
57847;BME280;43675;50.030;21.952;2023-08-24T04:17:07;98931.73;;;14.94;89.19
57847;BME280;43675;50.030;21.952;2023-08-24T04:19:37;98928.83;;;14.95;89.41
57847;BME280;43675;50.030;21.952;2023-08-24T04:22:04;98923.91;;;14.98;89.56
57847;BME280;43675;50.030;21.952;2023-08-24T04:24:31;98919.80;;;15.02;89.78
57847;BME280;43675;50.030;21.952;2023-08-24T04:26:58;98924.52;;;15.07;90.01
57847;BME280;43675;50.030;21.952;2023-08-24T04:29:24;98922.52;;;15.13;90.06
57847;BME280;43675;50.030;21.952;2023-08-24T04:31:51;98925.70;;;15.20;90.23
57847;BME280;43675;50.030;21.952;2023-08-24T04:34:17;98931.17;;;15.28;90.28
57847;BME280;43675;50.030;21.952;2023-08-24T04:36:44;98932.77;;;15.37;90.45
57847;BME280;43675;50.030;21.952;2023-08-24T04:39:11;98935.80;;;15.47;90.58
57847;BME280;43675;50.030;21.952;2023-08-24T04:41:37;98936.67;;;15.60;90.73
57847;BME280;43675;50.030;21.952;2023-08-24T04:44:04;98930.77;;;15.71;90.73
57847;BME280;43675;50.030;21.952;2023-08-24T04:46:31;98935.53;;;15.82;90.80
57847;BME280;43675;50.030;21.952;2023-08-24T04:48:57;98936.67;;;15.93;90.80
57847;BME280;43675;50.030;21.952;2023-08-24T04:51:24;98928.89;;;16.03;90.78
57847;BME280;43675;50.030;21.952;2023-08-24T04:53:50;98928.02;;;16.14;90.82
57847;BME280;43675;50.030;21.952;2023-08-24T04:56:17;98925.33;;;16.25;90.78
57847;BME280;43675;50.030;21.952;2023-08-24T04:58:52;98927.91;;;16.37;90.67
57847;BME280;43675;50.030;21.952;2023-08-24T05:01:19;98929.78;;;16.49;90.56
57847;BME280;43675;50.030;21.952;2023-08-24T05:03:46;98933.19;;;16.63;90.41
57847;BME280;43675;50.030;21.952;2023-08-24T05:06:12;98923.98;;;16.75;90.31
57847;BME280;43675;50.030;21.952;2023-08-24T05:08:39;98929.73;;;16.88;90.18
57847;BME280;43675;50.030;21.952;2023-08-24T05:11:26;98929.27;;;17.02;89.97
57847;BME280;43675;50.030;21.952;2023-08-24T05:13:53;98936.89;;;17.20;89.55
57847;BME280;43675;50.030;21.952;2023-08-24T05:16:20;98940.84;;;17.36;88.93
57847;BME280;43675;50.030;21.952;2023-08-24T05:18:47;98946.83;;;17.49;88.34
57847;BME280;43675;50.030;21.952;2023-08-24T05:21:14;98947.38;;;17.61;87.87
57847;BME280;43675;50.030;21.952;2023-08-24T05:23:40;98948.87;;;17.73;87.04
57847;BME280;43675;50.030;21.952;2023-08-24T05:26:07;98947.11;;;17.84;86.37
57847;BME280;43675;50.030;21.952;2023-08-24T05:28:33;98954.60;;;17.93;85.84
57847;BME280;43675;50.030;21.952;2023-08-24T05:31:00;98952.12;;;18.01;85.34
57847;BME280;43675;50.030;21.952;2023-08-24T05:33:27;98954.60;;;18.10;85.03
57847;BME280;43675;50.030;21.952;2023-08-24T05:35:53;98953.30;;;18.19;84.77
57847;BME280;43675;50.030;21.952;2023-08-24T05:38:20;98957.02;;;18.29;84.30
57847;BME280;43675;50.030;21.952;2023-08-24T05:40:47;98958.33;;;18.39;83.75
57847;BME280;43675;50.030;21.952;2023-08-24T05:43:14;98956.02;;;18.49;83.48
57847;BME280;43675;50.030;21.952;2023-08-24T05:45:41;98956.30;;;18.60;83.10
57847;BME280;43675;50.030;21.952;2023-08-24T05:48:07;98951.33;;;18.70;82.90
57847;BME280;43675;50.030;21.952;2023-08-24T05:50:34;98951.06;;;18.79;82.30
57847;BME280;43675;50.030;21.952;2023-08-24T05:53:01;98946.30;;;18.90;82.14
57847;BME280;43675;50.030;21.952;2023-08-24T05:55:27;98946.36;;;19.00;81.66
57847;BME280;43675;50.030;21.952;2023-08-24T05:57:54;98947.20;;;19.09;81.25
57847;BME280;43675;50.030;21.952;2023-08-24T06:00:21;98950.08;;;19.19;80.82
57847;BME280;43675;50.030;21.952;2023-08-24T06:02:48;98952.41;;;19.28;80.51
57847;BME280;43675;50.030;21.952;2023-08-24T06:05:15;98951.23;;;19.39;80.07
57847;BME280;43675;50.030;21.952;2023-08-24T06:07:41;98953.48;;;19.50;79.63
57847;BME280;43675;50.030;21.952;2023-08-24T06:10:09;98949.11;;;19.60;79.40
57847;BME280;43675;50.030;21.952;2023-08-24T06:12:36;98946.70;;;19.69;79.20
57847;BME280;43675;50.030;21.952;2023-08-24T06:15:03;98945.27;;;19.78;78.90
57847;BME280;43675;50.030;21.952;2023-08-24T06:17:30;98941.95;;;19.86;78.58
57847;BME280;43675;50.030;21.952;2023-08-24T06:19:57;98936.97;;;19.96;78.16
57847;BME280;43675;50.030;21.952;2023-08-24T06:22:23;98941.30;;;20.07;77.70
57847;BME280;43675;50.030;21.952;2023-08-24T06:24:50;98939.48;;;20.16;77.18
57847;BME280;43675;50.030;21.952;2023-08-24T06:27:17;98937.09;;;20.26;76.60
57847;BME280;43675;50.030;21.952;2023-08-24T06:29:43;98932.23;;;20.36;76.16
57847;BME280;43675;50.030;21.952;2023-08-24T06:32:10;98935.11;;;20.46;75.88
57847;BME280;43675;50.030;21.952;2023-08-24T06:34:36;98936.26;;;20.58;76.05
57847;BME280;43675;50.030;21.952;2023-08-24T06:37:03;98934.24;;;20.66;75.46
57847;BME280;43675;50.030;21.952;2023-08-24T06:39:30;98933.73;;;20.75;75.04
57847;BME280;43675;50.030;21.952;2023-08-24T06:41:56;98932.75;;;20.84;74.87
57847;BME280;43675;50.030;21.952;2023-08-24T06:44:23;98930.67;;;20.93;74.20
57847;BME280;43675;50.030;21.952;2023-08-24T06:46:49;98929.73;;;21.00;73.57
57847;BME280;43675;50.030;21.952;2023-08-24T06:49:16;98929.77;;;21.05;73.06
57847;BME280;43675;50.030;21.952;2023-08-24T06:51:43;98929.56;;;21.11;72.90
57847;BME280;43675;50.030;21.952;2023-08-24T06:54:09;98930.15;;;21.19;72.10
57847;BME280;43675;50.030;21.952;2023-08-24T06:56:36;98933.02;;;21.28;71.67
57847;BME280;43675;50.030;21.952;2023-08-24T06:59:02;98934.24;;;21.38;71.17
57847;BME280;43675;50.030;21.952;2023-08-24T07:01:29;98941.52;;;21.48;70.94
57847;BME280;43675;50.030;21.952;2023-08-24T07:03:55;98939.31;;;21.57;70.98
57847;BME280;43675;50.030;21.952;2023-08-24T07:06:22;98941.34;;;21.67;70.79
57847;BME280;43675;50.030;21.952;2023-08-24T07:08:49;98940.20;;;21.76;70.44
57847;BME280;43675;50.030;21.952;2023-08-24T07:11:15;98944.02;;;21.86;70.17
57847;BME280;43675;50.030;21.952;2023-08-24T07:13:42;98942.61;;;21.94;69.38
57847;BME280;43675;50.030;21.952;2023-08-24T07:16:08;98944.55;;;21.99;68.71
57847;BME280;43675;50.030;21.952;2023-08-24T07:18:35;98948.71;;;22.06;68.51
57847;BME280;43675;50.030;21.952;2023-08-24T07:21:02;98949.38;;;22.13;68.01
57847;BME280;43675;50.030;21.952;2023-08-24T07:23:28;98946.45;;;22.20;67.75
57847;BME280;43675;50.030;21.952;2023-08-24T07:25:55;98949.65;;;22.29;67.58
57847;BME280;43675;50.030;21.952;2023-08-24T07:28:21;98953.02;;;22.40;66.82
57847;BME280;43675;50.030;21.952;2023-08-24T07:30:48;98952.30;;;22.49;66.03
57847;BME280;43675;50.030;21.952;2023-08-24T07:33:15;98953.31;;;22.59;65.56
57847;BME280;43675;50.030;21.952;2023-08-24T07:35:41;98957.48;;;22.69;64.52
57847;BME280;43675;50.030;21.952;2023-08-24T07:38:08;98957.46;;;22.78;63.65
57847;BME280;43675;50.030;21.952;2023-08-24T07:40:34;98952.46;;;22.86;63.10
57847;BME280;43675;50.030;21.952;2023-08-24T07:43:01;98951.30;;;22.94;62.48
57847;BME280;43675;50.030;21.952;2023-08-24T07:45:27;98956.94;;;23.04;61.27
57847;BME280;43675;50.030;21.952;2023-08-24T07:47:54;98961.23;;;23.07;60.71
57847;BME280;43675;50.030;21.952;2023-08-24T07:50:21;98963.98;;;23.13;60.56
57847;BME280;43675;50.030;21.952;2023-08-24T07:52:48;98963.64;;;23.18;59.49
57847;BME280;43675;50.030;21.952;2023-08-24T07:55:14;98961.02;;;23.24;59.26
57847;BME280;43675;50.030;21.952;2023-08-24T07:57:41;98962.68;;;23.27;58.60
57847;BME280;43675;50.030;21.952;2023-08-24T08:00:08;98962.09;;;23.30;58.67
57847;BME280;43675;50.030;21.952;2023-08-24T08:02:35;98954.77;;;23.35;58.26
57847;BME280;43675;50.030;21.952;2023-08-24T08:05:02;98957.00;;;23.47;57.62
57847;BME280;43675;50.030;21.952;2023-08-24T08:07:29;98955.81;;;23.65;56.86
57847;BME280;43675;50.030;21.952;2023-08-24T08:09:56;98958.98;;;23.83;56.17
57847;BME280;43675;50.030;21.952;2023-08-24T08:12:22;98958.86;;;23.88;55.71
57847;BME280;43675;50.030;21.952;2023-08-24T08:14:50;98962.25;;;23.88;55.62
57847;BME280;43675;50.030;21.952;2023-08-24T08:17:16;98958.09;;;23.92;55.65
57847;BME280;43675;50.030;21.952;2023-08-24T08:19:43;98958.52;;;23.97;55.32
57847;BME280;43675;50.030;21.952;2023-08-24T08:22:09;98956.84;;;23.99;54.66
57847;BME280;43675;50.030;21.952;2023-08-24T08:24:36;98959.20;;;23.99;54.10
57847;BME280;43675;50.030;21.952;2023-08-24T08:27:03;98957.36;;;24.01;53.93
57847;BME280;43675;50.030;21.952;2023-08-24T08:29:29;98955.20;;;24.07;53.97
57847;BME280;43675;50.030;21.952;2023-08-24T08:31:56;98955.31;;;24.28;54.85
57847;BME280;43675;50.030;21.952;2023-08-24T08:34:22;98958.35;;;24.41;55.00
57847;BME280;43675;50.030;21.952;2023-08-24T08:36:49;98957.08;;;24.45;53.27
57847;BME280;43675;50.030;21.952;2023-08-24T08:39:16;98958.71;;;24.46;52.35
57847;BME280;43675;50.030;21.952;2023-08-24T08:41:43;98958.19;;;24.46;52.07
57847;BME280;43675;50.030;21.952;2023-08-24T08:44:13;98961.36;;;24.52;52.25
57847;BME280;43675;50.030;21.952;2023-08-24T08:46:41;98961.14;;;24.70;51.78
57847;BME280;43675;50.030;21.952;2023-08-24T08:49:09;98957.25;;;24.90;51.51
57847;BME280;43675;50.030;21.952;2023-08-24T08:51:36;98955.97;;;25.04;51.23
57847;BME280;43675;50.030;21.952;2023-08-24T08:54:04;98957.88;;;25.13;51.32
57847;BME280;43675;50.030;21.952;2023-08-24T08:56:33;98954.73;;;25.20;51.05
57847;BME280;43675;50.030;21.952;2023-08-24T08:59:00;98955.42;;;25.26;50.94
57847;BME280;43675;50.030;21.952;2023-08-24T09:01:28;98956.45;;;25.28;51.05
57847;BME280;43675;50.030;21.952;2023-08-24T09:03:56;98952.35;;;25.24;52.09
57847;BME280;43675;50.030;21.952;2023-08-24T09:06:23;98945.30;;;25.36;51.25
57847;BME280;43675;50.030;21.952;2023-08-24T09:08:50;98939.86;;;25.50;51.22
57847;BME280;43675;50.030;21.952;2023-08-24T09:11:18;98937.04;;;25.55;50.27
57847;BME280;43675;50.030;21.952;2023-08-24T09:13:45;98934.48;;;25.64;50.42
57847;BME280;43675;50.030;21.952;2023-08-24T09:16:12;98934.15;;;25.78;49.55
57847;BME280;43675;50.030;21.952;2023-08-24T09:18:41;98937.40;;;25.88;49.75
57847;BME280;43675;50.030;21.952;2023-08-24T09:21:12;98939.35;;;25.97;49.55
57847;BME280;43675;50.030;21.952;2023-08-24T09:23:55;98933.64;;;25.97;49.62
57847;BME280;43675;50.030;21.952;2023-08-24T09:26:29;98936.83;;;26.06;49.30
57847;BME280;43675;50.030;21.952;2023-08-24T09:28:56;98934.60;;;26.14;48.57
57847;BME280;43675;50.030;21.952;2023-08-24T09:31:35;98937.77;;;26.03;47.70
57847;BME280;43675;50.030;21.952;2023-08-24T09:34:01;98934.55;;;25.85;47.28
57847;BME280;43675;50.030;21.952;2023-08-24T09:36:31;98934.08;;;25.73;47.19
57847;BME280;43675;50.030;21.952;2023-08-24T09:38:59;98934.02;;;25.63;47.14
57847;BME280;43675;50.030;21.952;2023-08-24T09:41:44;98934.27;;;25.59;47.10
57847;BME280;43675;50.030;21.952;2023-08-24T09:44:11;98930.52;;;25.51;47.22
57847;BME280;43675;50.030;21.952;2023-08-24T09:46:38;98925.43;;;25.49;47.33
57847;BME280;43675;50.030;21.952;2023-08-24T09:49:06;98925.52;;;25.52;47.51
57847;BME280;43675;50.030;21.952;2023-08-24T09:51:34;98925.39;;;25.58;47.43
57847;BME280;43675;50.030;21.952;2023-08-24T09:54:06;98924.52;;;25.63;47.41
57847;BME280;43675;50.030;21.952;2023-08-24T09:56:35;98919.94;;;25.64;46.87
57847;BME280;43675;50.030;21.952;2023-08-24T09:59:10;98918.67;;;25.66;47.33
57847;BME280;43675;50.030;21.952;2023-08-24T10:01:37;98917.56;;;25.67;46.68
57847;BME280;43675;50.030;21.952;2023-08-24T10:04:05;98919.10;;;25.70;46.57
57847;BME280;43675;50.030;21.952;2023-08-24T10:06:32;98917.11;;;25.72;46.56
57847;BME280;43675;50.030;21.952;2023-08-24T10:09:02;98918.67;;;25.76;46.81
57847;BME280;43675;50.030;21.952;2023-08-24T10:11:35;98918.05;;;25.78;46.51
57847;BME280;43675;50.030;21.952;2023-08-24T10:14:16;98921.17;;;25.77;46.28
57847;BME280;43675;50.030;21.952;2023-08-24T10:16:46;98919.27;;;25.87;46.21
57847;BME280;43675;50.030;21.952;2023-08-24T10:19:13;98922.99;;;26.03;46.29
57847;BME280;43675;50.030;21.952;2023-08-24T10:21:40;98919.34;;;26.23;46.51
57847;BME280;43675;50.030;21.952;2023-08-24T10:24:08;98920.94;;;26.43;45.16
57847;BME280;43675;50.030;21.952;2023-08-24T10:26:36;98926.61;;;26.49;44.67
57847;BME280;43675;50.030;21.952;2023-08-24T10:29:06;98926.30;;;26.48;43.93
57847;BME280;43675;50.030;21.952;2023-08-24T10:31:33;98921.45;;;26.46;43.43
57847;BME280;43675;50.030;21.952;2023-08-24T10:34:01;98915.55;;;26.44;42.87
57847;BME280;43675;50.030;21.952;2023-08-24T10:36:28;98913.23;;;26.60;42.91
57847;BME280;43675;50.030;21.952;2023-08-24T10:38:56;98907.38;;;26.85;42.95
57847;BME280;43675;50.030;21.952;2023-08-24T10:41:26;98902.45;;;27.07;42.46
57847;BME280;43675;50.030;21.952;2023-08-24T10:44:04;98905.92;;;27.27;42.74
57847;BME280;43675;50.030;21.952;2023-08-24T10:46:34;98902.19;;;27.38;42.68
57847;BME280;43675;50.030;21.952;2023-08-24T10:49:04;98896.65;;;27.41;41.91
57847;BME280;43675;50.030;21.952;2023-08-24T10:51:30;98894.15;;;27.42;41.68
57847;BME280;43675;50.030;21.952;2023-08-24T10:54:01;98892.52;;;27.45;42.02
57847;BME280;43675;50.030;21.952;2023-08-24T10:56:37;98889.58;;;27.50;42.29
57847;BME280;43675;50.030;21.952;2023-08-24T10:59:17;98884.60;;;27.56;42.13
57847;BME280;43675;50.030;21.952;2023-08-24T11:04:19;98876.59;;;27.57;41.71
57847;BME280;43675;50.030;21.952;2023-08-24T11:06:52;98877.80;;;27.56;41.50
57847;BME280;43675;50.030;21.952;2023-08-24T11:09:20;98881.05;;;27.45;41.62
57847;BME280;43675;50.030;21.952;2023-08-24T11:12:00;98877.04;;;27.31;40.66
57847;BME280;43675;50.030;21.952;2023-08-24T11:14:28;98873.77;;;27.11;40.83
57847;BME280;43675;50.030;21.952;2023-08-24T11:17:18;98872.26;;;27.03;41.13
57847;BME280;43675;50.030;21.952;2023-08-24T11:19:53;98871.11;;;27.00;41.29
57847;BME280;43675;50.030;21.952;2023-08-24T11:22:20;98872.86;;;27.01;41.66
57847;BME280;43675;50.030;21.952;2023-08-24T11:24:47;98868.43;;;27.05;41.31
57847;BME280;43675;50.030;21.952;2023-08-24T11:27:13;98868.60;;;27.11;41.51
57847;BME280;43675;50.030;21.952;2023-08-24T11:29:40;98870.42;;;27.21;41.76
57847;BME280;43675;50.030;21.952;2023-08-24T11:32:07;98870.55;;;27.27;40.64
57847;BME280;43675;50.030;21.952;2023-08-24T11:34:34;98865.46;;;27.27;40.67
57847;BME280;43675;50.030;21.952;2023-08-24T11:37:01;98864.79;;;27.33;40.62
57847;BME280;43675;50.030;21.952;2023-08-24T11:39:28;98868.86;;;27.45;40.61
57847;BME280;43675;50.030;21.952;2023-08-24T11:42:00;98870.58;;;27.50;39.87
57847;BME280;43675;50.030;21.952;2023-08-24T11:44:27;98865.90;;;27.43;39.34
57847;BME280;43675;50.030;21.952;2023-08-24T11:46:58;98860.44;;;27.43;39.49
57847;BME280;43675;50.030;21.952;2023-08-24T11:49:25;98861.70;;;27.48;39.11
57847;BME280;43675;50.030;21.952;2023-08-24T11:51:52;98859.65;;;27.52;38.83
57847;BME280;43675;50.030;21.952;2023-08-24T11:54:19;98859.66;;;27.46;39.47
57847;BME280;43675;50.030;21.952;2023-08-24T11:56:45;98855.69;;;27.34;39.83
57847;BME280;43675;50.030;21.952;2023-08-24T11:59:12;98855.73;;;27.28;40.43
57847;BME280;43675;50.030;21.952;2023-08-24T12:01:41;98850.59;;;27.21;39.79
57847;BME280;43675;50.030;21.952;2023-08-24T12:04:08;98845.17;;;27.09;40.10
57847;BME280;43675;50.030;21.952;2023-08-24T12:06:35;98847.91;;;27.03;40.64
57847;BME280;43675;50.030;21.952;2023-08-24T12:09:04;98845.10;;;27.01;41.13
57847;BME280;43675;50.030;21.952;2023-08-24T12:11:36;98844.70;;;27.00;41.80
57847;BME280;43675;50.030;21.952;2023-08-24T12:14:03;98839.71;;;27.02;42.05
57847;BME280;43675;50.030;21.952;2023-08-24T12:16:31;98841.02;;;27.08;41.56
57847;BME280;43675;50.030;21.952;2023-08-24T12:19:00;98838.59;;;27.09;40.65
57847;BME280;43675;50.030;21.952;2023-08-24T12:21:26;98839.57;;;27.12;40.57
57847;BME280;43675;50.030;21.952;2023-08-24T12:24:01;98838.16;;;27.18;40.55
57847;BME280;43675;50.030;21.952;2023-08-24T12:26:28;98837.19;;;27.24;40.33
57847;BME280;43675;50.030;21.952;2023-08-24T12:29:05;98834.48;;;27.28;39.91
57847;BME280;43675;50.030;21.952;2023-08-24T12:31:33;98835.38;;;27.31;39.53
57847;BME280;43675;50.030;21.952;2023-08-24T12:34:07;98829.94;;;27.30;39.13
57847;BME280;43675;50.030;21.952;2023-08-24T12:36:36;98828.14;;;27.34;39.44
57847;BME280;43675;50.030;21.952;2023-08-24T12:39:04;98831.10;;;27.42;39.92
57847;BME280;43675;50.030;21.952;2023-08-24T12:41:31;98837.54;;;27.47;40.01
57847;BME280;43675;50.030;21.952;2023-08-24T12:43:58;98839.23;;;27.45;40.23
57847;BME280;43675;50.030;21.952;2023-08-24T12:46:25;98839.56;;;27.41;40.88
57847;BME280;43675;50.030;21.952;2023-08-24T12:48:51;98841.87;;;27.33;40.70
57847;BME280;43675;50.030;21.952;2023-08-24T12:51:18;98839.85;;;27.21;40.16
57847;BME280;43675;50.030;21.952;2023-08-24T12:53:44;98838.54;;;27.13;40.13
57847;BME280;43675;50.030;21.952;2023-08-24T12:56:11;98831.55;;;27.09;40.04
57847;BME280;43675;50.030;21.952;2023-08-24T12:58:38;98828.03;;;27.05;39.72